sensor_id;sensor_type;location;lat;lon;timestamp;temperature;humidity
851;DHT22;412;51.400;7.480;2023-07-31T00:00:17;18.70;99.90
851;DHT22;412;51.400;7.480;2023-07-31T00:02:42;18.70;99.90
851;DHT22;412;51.400;7.480;2023-07-31T00:05:09;18.70;99.90
851;DHT22;412;51.400;7.480;2023-07-31T00:07:35;18.70;99.90
851;DHT22;412;51.400;7.480;2023-07-31T00:10:01;18.70;99.90
851;DHT22;412;51.400;7.480;2023-07-31T00:12:27;18.70;99.90
851;DHT22;412;51.400;7.480;2023-07-31T00:14:52;18.70;99.90
851;DHT22;412;51.400;7.480;2023-07-31T00:17:18;18.70;99.90
851;DHT22;412;51.400;7.480;2023-07-31T00:19:44;18.80;99.90
851;DHT22;412;51.400;7.480;2023-07-31T00:22:12;18.80;99.90
851;DHT22;412;51.400;7.480;2023-07-31T00:24:37;18.90;99.90
851;DHT22;412;51.400;7.480;2023-07-31T00:27:04;18.90;99.90
851;DHT22;412;51.400;7.480;2023-07-31T00:29:30;18.90;99.90
851;DHT22;412;51.400;7.480;2023-07-31T00:31:56;18.90;99.90
851;DHT22;412;51.400;7.480;2023-07-31T00:34:23;18.80;99.90
851;DHT22;412;51.400;7.480;2023-07-31T00:36:48;18.80;99.90
851;DHT22;412;51.400;7.480;2023-07-31T00:39:14;18.80;99.90
851;DHT22;412;51.400;7.480;2023-07-31T00:41:40;18.90;99.90
851;DHT22;412;51.400;7.480;2023-07-31T00:44:05;18.90;99.90
851;DHT22;412;51.400;7.480;2023-07-31T00:46:31;18.80;99.90
851;DHT22;412;51.400;7.480;2023-07-31T00:48:57;18.90;99.90
851;DHT22;412;51.400;7.480;2023-07-31T00:51:23;18.80;99.90
851;DHT22;412;51.400;7.480;2023-07-31T00:53:49;18.80;99.90
851;DHT22;412;51.400;7.480;2023-07-31T00:56:15;18.80;99.90
851;DHT22;412;51.400;7.480;2023-07-31T00:58:41;18.80;99.90
851;DHT22;412;51.400;7.480;2023-07-31T01:01:07;18.80;99.90
851;DHT22;412;51.400;7.480;2023-07-31T01:03:33;18.70;99.90
851;DHT22;412;51.400;7.480;2023-07-31T01:06:24;18.70;99.90
851;DHT22;412;51.400;7.480;2023-07-31T01:09:02;18.70;99.90
851;DHT22;412;51.400;7.480;2023-07-31T01:11:31;18.80;99.90
851;DHT22;412;51.400;7.480;2023-07-31T01:13:58;18.80;99.90
851;DHT22;412;51.400;7.480;2023-07-31T01:16:27;18.70;99.90
851;DHT22;412;51.400;7.480;2023-07-31T01:18:53;18.80;99.90
851;DHT22;412;51.400;7.480;2023-07-31T01:26:40;18.80;99.90
851;DHT22;412;51.400;7.480;2023-07-31T01:31:50;18.80;99.90
851;DHT22;412;51.400;7.480;2023-07-31T01:34:19;18.90;99.90
851;DHT22;412;51.400;7.480;2023-07-31T01:36:46;18.90;99.90
851;DHT22;412;51.400;7.480;2023-07-31T01:39:11;18.90;99.90
851;DHT22;412;51.400;7.480;2023-07-31T01:41:37;18.90;99.90
851;DHT22;412;51.400;7.480;2023-07-31T01:44:05;19.00;99.90
851;DHT22;412;51.400;7.480;2023-07-31T01:46:31;19.00;99.90
851;DHT22;412;51.400;7.480;2023-07-31T01:48:57;19.00;99.90
851;DHT22;412;51.400;7.480;2023-07-31T01:51:23;19.00;99.90
851;DHT22;412;51.400;7.480;2023-07-31T01:53:48;18.90;99.90
851;DHT22;412;51.400;7.480;2023-07-31T01:56:14;19.00;99.90
851;DHT22;412;51.400;7.480;2023-07-31T01:58:40;19.00;99.90
851;DHT22;412;51.400;7.480;2023-07-31T02:01:06;19.00;99.90
851;DHT22;412;51.400;7.480;2023-07-31T02:03:31;19.00;99.90
851;DHT22;412;51.400;7.480;2023-07-31T02:05:57;18.90;99.90
851;DHT22;412;51.400;7.480;2023-07-31T02:08:23;19.00;99.90
851;DHT22;412;51.400;7.480;2023-07-31T02:10:49;19.10;99.90
851;DHT22;412;51.400;7.480;2023-07-31T02:13:14;19.00;99.90
851;DHT22;412;51.400;7.480;2023-07-31T02:15:40;19.00;99.90
851;DHT22;412;51.400;7.480;2023-07-31T02:18:06;19.00;99.90
851;DHT22;412;51.400;7.480;2023-07-31T02:20:35;19.00;99.90
851;DHT22;412;51.400;7.480;2023-07-31T02:23:01;18.90;99.90
851;DHT22;412;51.400;7.480;2023-07-31T02:25:27;19.00;99.90
851;DHT22;412;51.400;7.480;2023-07-31T02:27:52;19.00;99.90
851;DHT22;412;51.400;7.480;2023-07-31T02:30:18;19.00;99.90
851;DHT22;412;51.400;7.480;2023-07-31T02:32:44;19.00;99.90
851;DHT22;412;51.400;7.480;2023-07-31T02:35:09;18.90;99.90
851;DHT22;412;51.400;7.480;2023-07-31T02:37:36;19.00;99.90
851;DHT22;412;51.400;7.480;2023-07-31T02:40:03;19.00;99.90
851;DHT22;412;51.400;7.480;2023-07-31T02:42:29;19.00;99.90
851;DHT22;412;51.400;7.480;2023-07-31T02:44:55;18.90;99.90
851;DHT22;412;51.400;7.480;2023-07-31T02:47:22;19.00;99.90
851;DHT22;412;51.400;7.480;2023-07-31T02:49:48;19.00;99.90
851;DHT22;412;51.400;7.480;2023-07-31T02:52:14;19.00;99.90
851;DHT22;412;51.400;7.480;2023-07-31T02:54:39;19.00;99.90
851;DHT22;412;51.400;7.480;2023-07-31T02:57:05;19.00;99.90
851;DHT22;412;51.400;7.480;2023-07-31T02:59:31;19.00;99.90
851;DHT22;412;51.400;7.480;2023-07-31T03:01:57;19.00;99.90
851;DHT22;412;51.400;7.480;2023-07-31T03:04:25;19.00;99.90
851;DHT22;412;51.400;7.480;2023-07-31T03:06:50;19.00;99.90
851;DHT22;412;51.400;7.480;2023-07-31T03:09:16;19.00;99.90
851;DHT22;412;51.400;7.480;2023-07-31T03:11:42;19.00;99.90
851;DHT22;412;51.400;7.480;2023-07-31T03:14:07;19.00;99.90
851;DHT22;412;51.400;7.480;2023-07-31T03:16:33;19.00;99.90
851;DHT22;412;51.400;7.480;2023-07-31T03:18:59;19.10;99.90
851;DHT22;412;51.400;7.480;2023-07-31T03:21:24;19.10;99.90
851;DHT22;412;51.400;7.480;2023-07-31T03:23:50;19.10;99.90
851;DHT22;412;51.400;7.480;2023-07-31T03:26:16;19.10;99.90
851;DHT22;412;51.400;7.480;2023-07-31T03:28:42;19.10;99.90
851;DHT22;412;51.400;7.480;2023-07-31T03:31:07;19.10;99.90
851;DHT22;412;51.400;7.480;2023-07-31T03:33:34;19.10;99.90
851;DHT22;412;51.400;7.480;2023-07-31T03:35:59;19.10;99.90
851;DHT22;412;51.400;7.480;2023-07-31T03:38:25;19.00;99.90
851;DHT22;412;51.400;7.480;2023-07-31T03:40:51;19.00;99.90
851;DHT22;412;51.400;7.480;2023-07-31T03:43:17;19.00;99.90
851;DHT22;412;51.400;7.480;2023-07-31T03:45:42;19.00;99.90
851;DHT22;412;51.400;7.480;2023-07-31T03:48:08;19.00;99.90
851;DHT22;412;51.400;7.480;2023-07-31T03:50:34;19.00;99.90
851;DHT22;412;51.400;7.480;2023-07-31T03:53:00;19.00;99.90
851;DHT22;412;51.400;7.480;2023-07-31T03:55:25;19.00;99.90
851;DHT22;412;51.400;7.480;2023-07-31T03:57:51;19.00;99.90
851;DHT22;412;51.400;7.480;2023-07-31T04:00:17;19.10;99.90
851;DHT22;412;51.400;7.480;2023-07-31T04:02:43;19.10;99.90
851;DHT22;412;51.400;7.480;2023-07-31T04:05:08;19.10;99.90
851;DHT22;412;51.400;7.480;2023-07-31T04:07:35;19.10;99.90
851;DHT22;412;51.400;7.480;2023-07-31T04:10:00;19.10;99.90
851;DHT22;412;51.400;7.480;2023-07-31T04:12:26;19.00;99.90
851;DHT22;412;51.400;7.480;2023-07-31T04:14:52;19.00;99.90
851;DHT22;412;51.400;7.480;2023-07-31T04:17:18;19.10;99.90
851;DHT22;412;51.400;7.480;2023-07-31T04:19:44;19.10;99.90
851;DHT22;412;51.400;7.480;2023-07-31T04:22:09;19.10;99.90
851;DHT22;412;51.400;7.480;2023-07-31T04:24:35;19.20;99.90
851;DHT22;412;51.400;7.480;2023-07-31T04:27:01;19.20;99.90
851;DHT22;412;51.400;7.480;2023-07-31T04:29:27;19.30;99.90
851;DHT22;412;51.400;7.480;2023-07-31T04:31:52;19.30;99.90
851;DHT22;412;51.400;7.480;2023-07-31T04:34:18;19.30;99.90
851;DHT22;412;51.400;7.480;2023-07-31T04:36:44;19.30;99.90
851;DHT22;412;51.400;7.480;2023-07-31T04:39:09;19.30;99.90
851;DHT22;412;51.400;7.480;2023-07-31T04:41:35;19.40;99.90
851;DHT22;412;51.400;7.480;2023-07-31T04:44:06;19.40;99.90
851;DHT22;412;51.400;7.480;2023-07-31T04:46:31;19.30;99.90
851;DHT22;412;51.400;7.480;2023-07-31T04:48:57;19.40;99.90
851;DHT22;412;51.400;7.480;2023-07-31T04:51:23;19.40;99.90
851;DHT22;412;51.400;7.480;2023-07-31T04:53:49;19.40;99.90
851;DHT22;412;51.400;7.480;2023-07-31T04:56:15;19.50;99.90
851;DHT22;412;51.400;7.480;2023-07-31T04:58:41;19.50;99.90
851;DHT22;412;51.400;7.480;2023-07-31T05:01:07;19.50;99.90
851;DHT22;412;51.400;7.480;2023-07-31T05:03:33;19.50;99.90
851;DHT22;412;51.400;7.480;2023-07-31T05:05:59;19.50;99.90
851;DHT22;412;51.400;7.480;2023-07-31T05:08:24;19.50;99.90
851;DHT22;412;51.400;7.480;2023-07-31T05:10:51;19.50;99.90
851;DHT22;412;51.400;7.480;2023-07-31T05:13:17;19.50;99.90
851;DHT22;412;51.400;7.480;2023-07-31T05:15:42;19.50;99.90
851;DHT22;412;51.400;7.480;2023-07-31T05:18:08;19.50;99.90
851;DHT22;412;51.400;7.480;2023-07-31T05:20:34;19.50;99.90
851;DHT22;412;51.400;7.480;2023-07-31T05:22:59;19.50;99.90
851;DHT22;412;51.400;7.480;2023-07-31T05:25:25;19.50;99.90
851;DHT22;412;51.400;7.480;2023-07-31T05:27:51;19.50;99.90
851;DHT22;412;51.400;7.480;2023-07-31T05:30:17;19.50;99.90
851;DHT22;412;51.400;7.480;2023-07-31T05:32:42;19.60;99.90
851;DHT22;412;51.400;7.480;2023-07-31T05:35:08;19.60;99.90
851;DHT22;412;51.400;7.480;2023-07-31T05:37:34;19.70;99.90
851;DHT22;412;51.400;7.480;2023-07-31T05:40:00;19.70;99.90
851;DHT22;412;51.400;7.480;2023-07-31T05:42:26;19.70;99.90
851;DHT22;412;51.400;7.480;2023-07-31T05:44:52;19.70;99.90
851;DHT22;412;51.400;7.480;2023-07-31T05:47:17;19.60;99.90
851;DHT22;412;51.400;7.480;2023-07-31T05:49:43;19.70;99.90
851;DHT22;412;51.400;7.480;2023-07-31T05:52:09;19.70;99.90
851;DHT22;412;51.400;7.480;2023-07-31T05:54:35;19.70;99.90
851;DHT22;412;51.400;7.480;2023-07-31T05:57:01;19.70;99.90
851;DHT22;412;51.400;7.480;2023-07-31T05:59:27;19.70;99.90
851;DHT22;412;51.400;7.480;2023-07-31T06:01:53;19.70;99.90
851;DHT22;412;51.400;7.480;2023-07-31T06:04:18;19.70;99.90
851;DHT22;412;51.400;7.480;2023-07-31T06:06:44;19.70;99.90
851;DHT22;412;51.400;7.480;2023-07-31T06:09:10;19.70;99.90
851;DHT22;412;51.400;7.480;2023-07-31T06:11:37;19.70;99.90
851;DHT22;412;51.400;7.480;2023-07-31T06:14:02;19.70;99.90
851;DHT22;412;51.400;7.480;2023-07-31T06:16:28;19.60;99.90
851;DHT22;412;51.400;7.480;2023-07-31T06:18:54;19.60;99.90
851;DHT22;412;51.400;7.480;2023-07-31T06:21:20;19.60;99.90
851;DHT22;412;51.400;7.480;2023-07-31T06:23:45;19.60;99.90
851;DHT22;412;51.400;7.480;2023-07-31T06:26:11;19.50;99.90
851;DHT22;412;51.400;7.480;2023-07-31T06:28:37;19.50;99.90
851;DHT22;412;51.400;7.480;2023-07-31T06:31:02;19.50;99.90
851;DHT22;412;51.400;7.480;2023-07-31T06:33:28;19.60;99.90
851;DHT22;412;51.400;7.480;2023-07-31T06:35:54;19.60;99.90
851;DHT22;412;51.400;7.480;2023-07-31T06:38:22;19.50;99.90
851;DHT22;412;51.400;7.480;2023-07-31T06:40:48;19.50;99.90
851;DHT22;412;51.400;7.480;2023-07-31T06:43:14;19.60;99.90
851;DHT22;412;51.400;7.480;2023-07-31T06:45:40;19.60;99.90
851;DHT22;412;51.400;7.480;2023-07-31T06:48:06;19.50;99.90
851;DHT22;412;51.400;7.480;2023-07-31T06:50:32;19.40;99.90
851;DHT22;412;51.400;7.480;2023-07-31T06:52:57;19.40;99.90
851;DHT22;412;51.400;7.480;2023-07-31T06:55:24;19.50;99.90
851;DHT22;412;51.400;7.480;2023-07-31T06:57:51;19.50;99.90
851;DHT22;412;51.400;7.480;2023-07-31T07:00:18;19.60;99.90
851;DHT22;412;51.400;7.480;2023-07-31T07:02:44;19.60;99.90
851;DHT22;412;51.400;7.480;2023-07-31T07:05:10;19.60;99.90
851;DHT22;412;51.400;7.480;2023-07-31T07:07:36;19.50;99.90
851;DHT22;412;51.400;7.480;2023-07-31T07:10:02;19.50;99.90
851;DHT22;412;51.400;7.480;2023-07-31T07:12:30;19.50;99.90
851;DHT22;412;51.400;7.480;2023-07-31T07:14:56;19.40;99.90
851;DHT22;412;51.400;7.480;2023-07-31T07:17:23;19.40;99.90
851;DHT22;412;51.400;7.480;2023-07-31T07:19:49;19.40;99.90
851;DHT22;412;51.400;7.480;2023-07-31T07:22:15;19.40;99.90
851;DHT22;412;51.400;7.480;2023-07-31T07:24:42;19.40;99.90
851;DHT22;412;51.400;7.480;2023-07-31T07:27:07;19.40;99.90
851;DHT22;412;51.400;7.480;2023-07-31T07:29:37;19.20;99.90
851;DHT22;412;51.400;7.480;2023-07-31T07:32:04;19.30;99.90
851;DHT22;412;51.400;7.480;2023-07-31T07:34:29;19.20;99.90
851;DHT22;412;51.400;7.480;2023-07-31T07:36:55;19.20;99.90
851;DHT22;412;51.400;7.480;2023-07-31T07:39:21;19.30;99.90
851;DHT22;412;51.400;7.480;2023-07-31T07:41:47;19.30;99.90
851;DHT22;412;51.400;7.480;2023-07-31T07:44:13;19.30;99.90
851;DHT22;412;51.400;7.480;2023-07-31T07:46:40;19.30;99.90
851;DHT22;412;51.400;7.480;2023-07-31T07:49:06;19.20;99.90
851;DHT22;412;51.400;7.480;2023-07-31T07:51:31;19.20;99.90
851;DHT22;412;51.400;7.480;2023-07-31T07:54:01;19.20;99.90
851;DHT22;412;51.400;7.480;2023-07-31T07:56:27;19.30;99.90
851;DHT22;412;51.400;7.480;2023-07-31T07:58:54;19.20;99.90
851;DHT22;412;51.400;7.480;2023-07-31T08:01:22;19.30;99.90
851;DHT22;412;51.400;7.480;2023-07-31T08:03:48;19.30;99.90
851;DHT22;412;51.400;7.480;2023-07-31T08:06:14;19.30;99.90
851;DHT22;412;51.400;7.480;2023-07-31T08:08:40;19.30;99.90
851;DHT22;412;51.400;7.480;2023-07-31T08:11:06;19.40;99.90
851;DHT22;412;51.400;7.480;2023-07-31T08:13:32;19.40;99.90
851;DHT22;412;51.400;7.480;2023-07-31T08:15:58;19.30;99.90
851;DHT22;412;51.400;7.480;2023-07-31T08:18:23;19.30;99.90
851;DHT22;412;51.400;7.480;2023-07-31T08:20:49;19.40;99.90
851;DHT22;412;51.400;7.480;2023-07-31T08:23:15;19.60;99.90
851;DHT22;412;51.400;7.480;2023-07-31T08:25:41;19.60;99.90
851;DHT22;412;51.400;7.480;2023-07-31T08:28:06;19.60;99.90
851;DHT22;412;51.400;7.480;2023-07-31T08:30:32;19.60;99.90
851;DHT22;412;51.400;7.480;2023-07-31T08:33:01;19.60;99.90
851;DHT22;412;51.400;7.480;2023-07-31T08:35:28;19.60;99.90
851;DHT22;412;51.400;7.480;2023-07-31T08:37:54;19.60;99.90
851;DHT22;412;51.400;7.480;2023-07-31T08:40:20;19.50;99.90
851;DHT22;412;51.400;7.480;2023-07-31T08:42:49;19.40;99.90
851;DHT22;412;51.400;7.480;2023-07-31T08:45:17;19.40;99.90
851;DHT22;412;51.400;7.480;2023-07-31T08:47:45;19.40;99.90
851;DHT22;412;51.400;7.480;2023-07-31T08:50:13;19.40;99.90
851;DHT22;412;51.400;7.480;2023-07-31T08:52:39;19.40;99.90
851;DHT22;412;51.400;7.480;2023-07-31T08:55:06;19.40;99.90
851;DHT22;412;51.400;7.480;2023-07-31T08:57:35;19.40;99.90
851;DHT22;412;51.400;7.480;2023-07-31T09:00:05;19.40;99.90
851;DHT22;412;51.400;7.480;2023-07-31T09:02:38;19.40;99.90
851;DHT22;412;51.400;7.480;2023-07-31T09:05:07;19.40;99.90
851;DHT22;412;51.400;7.480;2023-07-31T09:07:37;19.40;99.90
851;DHT22;412;51.400;7.480;2023-07-31T09:10:04;19.50;99.90
851;DHT22;412;51.400;7.480;2023-07-31T09:12:31;19.50;99.90
851;DHT22;412;51.400;7.480;2023-07-31T09:14:58;19.50;99.90
851;DHT22;412;51.400;7.480;2023-07-31T09:17:32;19.40;99.90
851;DHT22;412;51.400;7.480;2023-07-31T09:19:58;19.30;99.90
851;DHT22;412;51.400;7.480;2023-07-31T09:22:35;19.20;99.90
851;DHT22;412;51.400;7.480;2023-07-31T09:25:24;19.20;99.90
851;DHT22;412;51.400;7.480;2023-07-31T09:27:56;19.20;99.90
851;DHT22;412;51.400;7.480;2023-07-31T09:30:22;19.30;99.90
851;DHT22;412;51.400;7.480;2023-07-31T09:32:49;19.20;99.90
851;DHT22;412;51.400;7.480;2023-07-31T09:37:52;19.20;99.90
851;DHT22;412;51.400;7.480;2023-07-31T09:40:32;19.30;99.90
851;DHT22;412;51.400;7.480;2023-07-31T09:43:00;19.20;99.90
851;DHT22;412;51.400;7.480;2023-07-31T09:45:27;19.20;99.90
851;DHT22;412;51.400;7.480;2023-07-31T09:47:54;19.30;99.90
851;DHT22;412;51.400;7.480;2023-07-31T09:50:23;19.30;99.90
851;DHT22;412;51.400;7.480;2023-07-31T09:52:50;19.20;99.90
851;DHT22;412;51.400;7.480;2023-07-31T09:55:16;19.20;99.90
851;DHT22;412;51.400;7.480;2023-07-31T09:57:48;19.30;99.90
851;DHT22;412;51.400;7.480;2023-07-31T10:00:18;19.30;99.90
851;DHT22;412;51.400;7.480;2023-07-31T10:02:46;19.30;99.90
851;DHT22;412;51.400;7.480;2023-07-31T10:05:14;19.30;99.90
851;DHT22;412;51.400;7.480;2023-07-31T10:07:42;19.40;99.90
851;DHT22;412;51.400;7.480;2023-07-31T10:10:09;19.40;99.90
851;DHT22;412;51.400;7.480;2023-07-31T10:12:35;19.40;99.90
851;DHT22;412;51.400;7.480;2023-07-31T10:15:02;19.50;99.90
851;DHT22;412;51.400;7.480;2023-07-31T10:17:30;19.40;99.90
851;DHT22;412;51.400;7.480;2023-07-31T10:19:58;19.40;99.90
851;DHT22;412;51.400;7.480;2023-07-31T10:22:25;19.30;99.90
851;DHT22;412;51.400;7.480;2023-07-31T10:24:52;19.30;99.90
851;DHT22;412;51.400;7.480;2023-07-31T10:27:20;19.30;99.90
851;DHT22;412;51.400;7.480;2023-07-31T10:29:47;19.30;99.90
851;DHT22;412;51.400;7.480;2023-07-31T10:32:14;19.30;99.90
851;DHT22;412;51.400;7.480;2023-07-31T10:34:41;19.40;99.90
851;DHT22;412;51.400;7.480;2023-07-31T10:37:37;19.30;99.90
851;DHT22;412;51.400;7.480;2023-07-31T10:42:32;19.60;99.90
851;DHT22;412;51.400;7.480;2023-07-31T10:44:59;19.80;99.90
851;DHT22;412;51.400;7.480;2023-07-31T10:47:25;19.60;99.90
851;DHT22;412;51.400;7.480;2023-07-31T10:49:51;19.80;99.90
851;DHT22;412;51.400;7.480;2023-07-31T10:52:21;19.90;99.90
851;DHT22;412;51.400;7.480;2023-07-31T10:57:50;19.70;99.90
851;DHT22;412;51.400;7.480;2023-07-31T11:00:29;19.70;99.90
851;DHT22;412;51.400;7.480;2023-07-31T11:03:03;19.70;99.90
851;DHT22;412;51.400;7.480;2023-07-31T11:06:01;19.70;99.90
851;DHT22;412;51.400;7.480;2023-07-31T11:08:33;19.40;99.90
851;DHT22;412;51.400;7.480;2023-07-31T11:15:54;19.40;99.90
851;DHT22;412;51.400;7.480;2023-07-31T11:18:19;19.40;99.90
851;DHT22;412;51.400;7.480;2023-07-31T11:20:46;19.50;99.90
851;DHT22;412;51.400;7.480;2023-07-31T11:23:12;19.60;99.90
851;DHT22;412;51.400;7.480;2023-07-31T11:25:39;19.60;99.90
851;DHT22;412;51.400;7.480;2023-07-31T11:28:15;19.70;99.90
851;DHT22;412;51.400;7.480;2023-07-31T11:30:42;19.80;99.90
851;DHT22;412;51.400;7.480;2023-07-31T11:33:10;19.80;99.90
851;DHT22;412;51.400;7.480;2023-07-31T11:35:46;19.90;99.90
851;DHT22;412;51.400;7.480;2023-07-31T11:38:14;19.90;99.90
851;DHT22;412;51.400;7.480;2023-07-31T11:40:47;20.00;99.90
851;DHT22;412;51.400;7.480;2023-07-31T11:43:13;19.90;99.90
851;DHT22;412;51.400;7.480;2023-07-31T11:45:48;19.70;99.90
851;DHT22;412;51.400;7.480;2023-07-31T11:48:28;19.70;99.90
851;DHT22;412;51.400;7.480;2023-07-31T11:50:57;19.80;99.90
851;DHT22;412;51.400;7.480;2023-07-31T11:53:44;19.90;99.90
851;DHT22;412;51.400;7.480;2023-07-31T11:56:14;20.00;99.90
851;DHT22;412;51.400;7.480;2023-07-31T11:58:43;20.00;99.90
851;DHT22;412;51.400;7.480;2023-07-31T12:01:11;20.00;99.90
851;DHT22;412;51.400;7.480;2023-07-31T12:03:37;19.90;99.90
851;DHT22;412;51.400;7.480;2023-07-31T12:06:03;20.00;99.90
851;DHT22;412;51.400;7.480;2023-07-31T12:08:29;20.00;99.90
851;DHT22;412;51.400;7.480;2023-07-31T12:11:06;19.70;99.90
851;DHT22;412;51.400;7.480;2023-07-31T12:13:33;19.70;99.90
851;DHT22;412;51.400;7.480;2023-07-31T12:16:03;19.70;99.90
851;DHT22;412;51.400;7.480;2023-07-31T12:18:33;19.60;99.90
851;DHT22;412;51.400;7.480;2023-07-31T12:21:00;19.60;99.90
851;DHT22;412;51.400;7.480;2023-07-31T12:23:30;19.60;99.90
851;DHT22;412;51.400;7.480;2023-07-31T12:26:16;19.50;99.90
851;DHT22;412;51.400;7.480;2023-07-31T12:28:43;19.60;99.90
851;DHT22;412;51.400;7.480;2023-07-31T12:31:11;19.80;99.90
851;DHT22;412;51.400;7.480;2023-07-31T12:33:38;19.90;99.90
851;DHT22;412;51.400;7.480;2023-07-31T12:36:15;20.00;99.90
851;DHT22;412;51.400;7.480;2023-07-31T12:38:41;20.20;99.90
851;DHT22;412;51.400;7.480;2023-07-31T12:41:08;20.20;99.90
851;DHT22;412;51.400;7.480;2023-07-31T12:43:35;20.20;99.90
851;DHT22;412;51.400;7.480;2023-07-31T12:46:01;20.20;99.90
851;DHT22;412;51.400;7.480;2023-07-31T12:48:27;20.30;99.90
851;DHT22;412;51.400;7.480;2023-07-31T12:50:52;20.30;99.90
851;DHT22;412;51.400;7.480;2023-07-31T12:53:18;20.30;99.90
851;DHT22;412;51.400;7.480;2023-07-31T12:55:44;20.30;99.90
851;DHT22;412;51.400;7.480;2023-07-31T12:58:10;20.30;99.90
851;DHT22;412;51.400;7.480;2023-07-31T13:00:36;20.30;99.90
851;DHT22;412;51.400;7.480;2023-07-31T13:03:02;20.30;99.90
851;DHT22;412;51.400;7.480;2023-07-31T13:05:28;20.20;99.90
851;DHT22;412;51.400;7.480;2023-07-31T13:07:54;20.20;99.90
851;DHT22;412;51.400;7.480;2023-07-31T13:10:21;20.30;99.90
851;DHT22;412;51.400;7.480;2023-07-31T13:12:47;20.40;99.90
851;DHT22;412;51.400;7.480;2023-07-31T13:15:13;20.40;99.90
851;DHT22;412;51.400;7.480;2023-07-31T13:17:39;20.40;99.90
851;DHT22;412;51.400;7.480;2023-07-31T13:20:05;20.40;99.90
851;DHT22;412;51.400;7.480;2023-07-31T13:22:32;20.40;99.90
851;DHT22;412;51.400;7.480;2023-07-31T13:24:58;20.20;99.90
851;DHT22;412;51.400;7.480;2023-07-31T13:27:24;20.30;99.90
851;DHT22;412;51.400;7.480;2023-07-31T13:29:53;20.30;99.90
851;DHT22;412;51.400;7.480;2023-07-31T13:32:20;20.30;99.90
851;DHT22;412;51.400;7.480;2023-07-31T13:34:47;20.30;99.90
851;DHT22;412;51.400;7.480;2023-07-31T13:37:13;20.30;99.90
851;DHT22;412;51.400;7.480;2023-07-31T13:39:39;20.20;99.90
851;DHT22;412;51.400;7.480;2023-07-31T13:42:06;20.00;99.90
851;DHT22;412;51.400;7.480;2023-07-31T13:44:34;20.00;99.90
851;DHT22;412;51.400;7.480;2023-07-31T13:47:00;20.00;99.90
851;DHT22;412;51.400;7.480;2023-07-31T13:49:26;19.90;99.90
851;DHT22;412;51.400;7.480;2023-07-31T13:51:52;19.80;99.90
851;DHT22;412;51.400;7.480;2023-07-31T13:54:18;19.80;99.90
851;DHT22;412;51.400;7.480;2023-07-31T13:56:44;19.70;99.90
851;DHT22;412;51.400;7.480;2023-07-31T13:59:10;19.80;99.90
851;DHT22;412;51.400;7.480;2023-07-31T14:01:36;19.80;99.90
851;DHT22;412;51.400;7.480;2023-07-31T14:04:02;19.80;99.90
851;DHT22;412;51.400;7.480;2023-07-31T14:06:28;19.90;99.90
851;DHT22;412;51.400;7.480;2023-07-31T14:08:53;20.00;99.90
851;DHT22;412;51.400;7.480;2023-07-31T14:11:19;20.00;99.90
851;DHT22;412;51.400;7.480;2023-07-31T14:13:45;20.10;99.90
851;DHT22;412;51.400;7.480;2023-07-31T14:16:10;20.20;99.90
851;DHT22;412;51.400;7.480;2023-07-31T14:18:36;20.30;99.90
851;DHT22;412;51.400;7.480;2023-07-31T14:21:02;20.40;99.90
851;DHT22;412;51.400;7.480;2023-07-31T14:23:28;20.50;99.90
851;DHT22;412;51.400;7.480;2023-07-31T14:25:54;20.50;99.90
851;DHT22;412;51.400;7.480;2023-07-31T14:28:19;20.60;99.90
851;DHT22;412;51.400;7.480;2023-07-31T14:30:45;20.50;99.90
851;DHT22;412;51.400;7.480;2023-07-31T14:33:11;20.60;99.90
851;DHT22;412;51.400;7.480;2023-07-31T14:35:37;20.60;99.90
851;DHT22;412;51.400;7.480;2023-07-31T14:38:03;20.60;99.90
851;DHT22;412;51.400;7.480;2023-07-31T14:40:29;20.70;99.90
851;DHT22;412;51.400;7.480;2023-07-31T14:42:54;20.70;99.90
851;DHT22;412;51.400;7.480;2023-07-31T14:45:20;20.70;99.90
851;DHT22;412;51.400;7.480;2023-07-31T14:47:46;20.70;99.90
851;DHT22;412;51.400;7.480;2023-07-31T14:50:12;20.70;99.90
851;DHT22;412;51.400;7.480;2023-07-31T14:52:38;20.70;99.90
851;DHT22;412;51.400;7.480;2023-07-31T14:55:04;20.70;99.90
851;DHT22;412;51.400;7.480;2023-07-31T14:57:30;20.70;99.90
851;DHT22;412;51.400;7.480;2023-07-31T14:59:55;20.70;99.90
851;DHT22;412;51.400;7.480;2023-07-31T15:02:21;20.60;99.90
851;DHT22;412;51.400;7.480;2023-07-31T15:04:47;20.50;99.90
851;DHT22;412;51.400;7.480;2023-07-31T15:07:13;20.50;99.90
851;DHT22;412;51.400;7.480;2023-07-31T15:09:39;20.60;99.90
851;DHT22;412;51.400;7.480;2023-07-31T15:12:06;20.60;99.90
851;DHT22;412;51.400;7.480;2023-07-31T15:14:31;20.60;99.90
851;DHT22;412;51.400;7.480;2023-07-31T15:16:57;20.70;99.90
851;DHT22;412;51.400;7.480;2023-07-31T15:19:23;20.70;99.90
851;DHT22;412;51.400;7.480;2023-07-31T15:21:49;20.70;99.90
851;DHT22;412;51.400;7.480;2023-07-31T15:24:15;20.70;99.90
851;DHT22;412;51.400;7.480;2023-07-31T15:26:41;20.80;99.90
851;DHT22;412;51.400;7.480;2023-07-31T15:29:08;20.80;99.90
851;DHT22;412;51.400;7.480;2023-07-31T15:31:45;20.80;99.90
851;DHT22;412;51.400;7.480;2023-07-31T15:34:12;20.80;99.90
851;DHT22;412;51.400;7.480;2023-07-31T15:36:38;20.80;99.90
851;DHT22;412;51.400;7.480;2023-07-31T15:39:04;20.80;99.90
851;DHT22;412;51.400;7.480;2023-07-31T15:41:30;20.80;99.90
851;DHT22;412;51.400;7.480;2023-07-31T15:43:56;20.70;99.90
851;DHT22;412;51.400;7.480;2023-07-31T15:46:21;20.70;99.90
851;DHT22;412;51.400;7.480;2023-07-31T15:48:47;20.70;99.90
851;DHT22;412;51.400;7.480;2023-07-31T15:51:13;20.70;99.90
851;DHT22;412;51.400;7.480;2023-07-31T15:53:39;20.60;99.90
851;DHT22;412;51.400;7.480;2023-07-31T15:56:06;20.70;99.90
851;DHT22;412;51.400;7.480;2023-07-31T15:58:31;20.60;99.90
851;DHT22;412;51.400;7.480;2023-07-31T16:00:58;20.50;99.90
851;DHT22;412;51.400;7.480;2023-07-31T16:03:24;20.50;99.90
851;DHT22;412;51.400;7.480;2023-07-31T16:05:50;20.50;99.90
851;DHT22;412;51.400;7.480;2023-07-31T16:08:15;20.50;99.90
851;DHT22;412;51.400;7.480;2023-07-31T16:10:41;20.50;99.90
851;DHT22;412;51.400;7.480;2023-07-31T16:13:07;20.50;99.90
851;DHT22;412;51.400;7.480;2023-07-31T16:15:33;20.50;99.90
851;DHT22;412;51.400;7.480;2023-07-31T16:17:59;20.50;99.90
851;DHT22;412;51.400;7.480;2023-07-31T16:20:25;20.50;99.90
851;DHT22;412;51.400;7.480;2023-07-31T16:22:51;20.60;99.90
851;DHT22;412;51.400;7.480;2023-07-31T16:25:17;20.60;99.90
851;DHT22;412;51.400;7.480;2023-07-31T16:27:43;20.60;99.90
851;DHT22;412;51.400;7.480;2023-07-31T16:30:09;20.50;99.90
851;DHT22;412;51.400;7.480;2023-07-31T16:32:35;20.40;99.90
851;DHT22;412;51.400;7.480;2023-07-31T16:35:02;20.30;99.90
851;DHT22;412;51.400;7.480;2023-07-31T16:37:29;20.20;99.90
851;DHT22;412;51.400;7.480;2023-07-31T16:39:54;20.20;99.90
851;DHT22;412;51.400;7.480;2023-07-31T16:42:21;20.30;99.90
851;DHT22;412;51.400;7.480;2023-07-31T16:44:47;20.30;99.90
851;DHT22;412;51.400;7.480;2023-07-31T16:47:13;20.30;99.90
851;DHT22;412;51.400;7.480;2023-07-31T16:49:39;20.30;99.90
851;DHT22;412;51.400;7.480;2023-07-31T16:52:05;20.40;99.90